Time,TemperatureF,DewpointF,PressureIn,WindDirection,WindDirectionDegrees,WindSpeedMPH,WindSpeedGustMPH,Humidity,HourlyPrecipIn,Conditions,Clouds,dailyrainin,SoftwareType,DateUTC
2015-01-28 00:00:00,14.9,5.3,17.72,North,0,0.0,0.0,65,0.00,,SKC,42.27,VWS V14.01,2015-01-28 05:00:00,
2015-01-28 00:05:00,14.5,5.0,17.72,North,0,0.0,0.0,65,0.00,,SKC,0.00,VWS V14.01,2015-01-28 05:05:00,
2015-01-28 00:10:00,14.4,4.8,17.72,North,0,0.0,0.0,65,0.00,,SKC,0.00,VWS V14.01,2015-01-28 05:10:00,
2015-01-28 00:15:00,14.4,4.8,17.72,North,0,0.0,0.0,65,0.00,,SKC,0.00,VWS V14.01,2015-01-28 05:15:00,
2015-01-28 00:20:00,14.9,5.3,17.72,North,0,0.0,0.0,65,0.00,,SKC,0.00,VWS V14.01,2015-01-28 05:20:00,
2015-01-28 00:25:00,15.1,5.5,17.72,North,0,0.0,0.0,65,0.00,,SKC,0.00,VWS V14.01,2015-01-28 05:25:00,
2015-01-28 00:30:00,15.3,5.7,17.72,North,0,0.0,0.0,65,0.00,,SKC,0.00,VWS V14.01,2015-01-28 05:30:00,
2015-01-28 00:35:00,15.1,5.5,17.72,North,0,0.0,0.0,65,0.00,,SKC,0.00,VWS V14.01,2015-01-28 05:35:00,
2015-01-28 00:40:00,14.9,5.3,17.72,North,0,0.0,0.0,65,0.00,,SKC,0.00,VWS V14.01,2015-01-28 05:40:00,
2015-01-28 00:45:00,14.5,5.0,17.72,North,0,0.0,0.0,65,0.00,,SKC,0.00,VWS V14.01,2015-01-28 05:45:00,
2015-01-28 00:50:00,14.5,5.0,17.72,North,0,0.0,0.0,65,0.00,,SKC,0.00,VWS V14.01,2015-01-28 05:50:00,
2015-01-28 00:55:00,14.4,5.4,17.72,North,0,0.0,0.0,67,0.00,,SKC,0.00,VWS V14.01,2015-01-28 05:55:00,
2015-01-28 01:00:00,14.4,5.4,17.72,North,0,0.0,0.0,67,0.00,,SKC,0.00,VWS V14.01,2015-01-28 06:00:00,
2015-01-28 01:05:00,14.4,5.4,17.72,North,0,0.0,0.0,67,0.00,,SKC,0.00,VWS V14.01,2015-01-28 06:05:00,
2015-01-28 01:10:00,14.2,5.2,17.72,North,0,0.0,0.0,67,0.00,,SKC,0.00,VWS V14.01,2015-01-28 06:10:00,
2015-01-28 01:15:00,14.2,5.2,17.72,North,0,0.0,0.0,67,0.00,,SKC,0.00,VWS V14.01,2015-01-28 06:15:00,
2015-01-28 01:20:00,14.0,5.1,17.72,North,0,0.0,0.0,67,0.00,,SKC,0.00,VWS V14.01,2015-01-28 06:20:00,
2015-01-28 01:25:00,14.0,5.7,17.72,North,0,0.0,0.0,69,0.00,,SKC,0.00,VWS V14.01,2015-01-28 06:25:00,
2015-01-28 01:30:00,14.0,5.7,17.72,North,0,0.0,0.0,69,0.00,,SKC,0.00,VWS V14.01,2015-01-28 06:30:00,
2015-01-28 01:35:00,13.8,5.5,17.72,North,0,0.0,0.0,69,0.00,,SKC,0.00,VWS V14.01,2015-01-28 06:35:00,
2015-01-28 01:40:00,13.8,5.5,17.72,North,0,0.0,0.0,69,0.00,,SKC,0.00,VWS V14.01,2015-01-28 06:40:00,
2015-01-28 01:45:00,14.0,5.7,17.72,North,0,0.0,0.0,69,0.00,,SKC,0.00,VWS V14.01,2015-01-28 06:45:00,
2015-01-28 01:50:00,14.2,5.8,17.72,North,0,0.0,0.0,69,0.00,,SKC,0.00,VWS V14.01,2015-01-28 06:50:00,
2015-01-28 01:55:00,14.2,5.8,17.72,North,0,0.0,0.0,69,0.00,,SKC,0.00,VWS V14.01,2015-01-28 06:55:00,
2015-01-28 02:00:00,14.0,6.2,17.72,North,0,0.0,0.0,71,0.00,,SKC,0.00,VWS V14.01,2015-01-28 07:00:00,
2015-01-28 02:05:00,13.8,6.1,17.72,North,0,0.0,0.0,71,0.00,,SKC,0.00,VWS V14.01,2015-01-28 07:05:00,
2015-01-28 02:10:00,13.8,6.1,17.72,North,0,0.0,0.0,71,0.00,,SKC,0.00,VWS V14.01,2015-01-28 07:10:00,
2015-01-28 02:15:00,13.8,6.1,17.72,North,0,0.0,0.0,71,0.00,,SKC,0.00,VWS V14.01,2015-01-28 07:15:00,
2015-01-28 02:20:00,13.8,6.1,17.72,North,0,0.0,0.0,71,0.00,,SKC,0.00,VWS V14.01,2015-01-28 07:20:00,
2015-01-28 02:25:00,13.8,6.1,17.72,North,0,0.0,0.0,71,0.00,,SKC,0.00,VWS V14.01,2015-01-28 07:25:00,
2015-01-28 02:30:00,13.8,6.1,17.72,North,0,0.0,0.0,71,0.00,,SKC,0.00,VWS V14.01,2015-01-28 07:30:00,
2015-01-28 02:35:00,13.8,6.1,17.72,North,0,0.0,0.0,71,0.00,,SKC,0.00,VWS V14.01,2015-01-28 07:35:00,
2015-01-28 02:40:00,13.8,6.1,17.72,North,0,0.0,0.0,71,0.00,,SKC,0.00,VWS V14.01,2015-01-28 07:40:00,
2015-01-28 02:45:00,13.8,6.1,17.72,North,0,0.0,0.0,71,0.00,,SKC,0.00,VWS V14.01,2015-01-28 07:45:00,
2015-01-28 02:50:00,13.8,6.1,17.72,North,0,0.0,0.0,71,0.00,,SKC,0.00,VWS V14.01,2015-01-28 07:50:00,
2015-01-28 02:55:00,13.6,5.9,17.72,North,0,0.0,0.0,71,0.00,,SKC,0.00,VWS V14.01,2015-01-28 07:55:00,
2015-01-28 03:00:00,13.6,5.9,17.72,North,0,0.0,0.0,71,0.00,,SKC,0.00,VWS V14.01,2015-01-28 08:00:00,
2015-01-28 03:05:00,13.6,5.9,17.72,North,0,0.0,0.0,71,0.00,,SKC,0.00,VWS V14.01,2015-01-28 08:05:00,
2015-01-28 03:10:00,13.8,6.1,17.72,North,0,0.0,0.0,71,0.00,,SKC,0.00,VWS V14.01,2015-01-28 08:10:00,
2015-01-28 03:15:00,13.8,6.1,17.72,North,0,0.0,0.0,71,0.00,,SKC,0.00,VWS V14.01,2015-01-28 08:15:00,
2015-01-28 03:20:00,13.6,5.9,17.72,North,0,0.0,0.0,71,0.00,,SKC,0.00,VWS V14.01,2015-01-28 08:20:00,
2015-01-28 03:25:00,13.6,5.9,17.72,North,0,0.0,0.0,71,0.00,,SKC,0.00,VWS V14.01,2015-01-28 08:25:00,
2015-01-28 03:30:00,13.6,5.9,17.72,North,0,0.0,0.0,71,0.00,,SKC,0.00,VWS V14.01,2015-01-28 08:30:00,
2015-01-28 03:35:00,13.6,5.9,17.72,North,0,0.0,0.0,71,0.00,,SKC,0.00,VWS V14.01,2015-01-28 08:35:00,
2015-01-28 03:41:00,13.6,5.9,17.72,North,0,0.0,0.0,71,0.00,,SKC,0.00,VWS V14.01,2015-01-28 08:41:00,
2015-01-28 03:46:00,13.6,5.9,17.72,North,0,0.0,0.0,71,0.00,,SKC,0.00,VWS V14.01,2015-01-28 08:46:00,
2015-01-28 03:51:00,13.6,5.9,17.72,North,0,0.0,0.0,71,0.00,,SKC,0.00,VWS V14.01,2015-01-28 08:51:00,
2015-01-28 03:56:00,13.6,5.9,17.72,North,0,0.0,0.0,71,0.00,,SKC,0.00,VWS V14.01,2015-01-28 08:56:00,
2015-01-28 04:01:00,13.6,5.9,17.72,North,0,0.0,0.0,71,0.00,,SKC,0.00,VWS V14.01,2015-01-28 09:01:00,
2015-01-28 04:06:00,13.6,5.9,17.72,North,0,0.0,0.0,71,0.00,,SKC,0.00,VWS V14.01,2015-01-28 09:06:00,
2015-01-28 04:11:00,13.5,5.7,17.72,North,0,0.0,0.0,71,0.00,,SKC,0.00,VWS V14.01,2015-01-28 09:11:00,
2015-01-28 04:16:00,13.5,5.7,17.72,North,0,0.0,0.0,71,0.00,,SKC,0.00,VWS V14.01,2015-01-28 09:16:00,
2015-01-28 04:21:00,13.3,5.6,17.72,North,0,0.0,0.0,71,0.00,,SKC,0.00,VWS V14.01,2015-01-28 09:21:00,
2015-01-28 04:26:00,13.3,5.6,17.72,North,0,0.0,0.0,71,0.00,,SKC,0.00,VWS V14.01,2015-01-28 09:26:00,
2015-01-28 04:31:00,13.3,5.6,17.72,North,0,0.0,0.0,71,0.00,,SKC,0.00,VWS V14.01,2015-01-28 09:31:00,
2015-01-28 04:36:00,13.3,5.6,17.72,North,0,0.0,0.0,71,0.00,,SKC,0.00,VWS V14.01,2015-01-28 09:36:00,
2015-01-28 04:41:00,13.3,5.6,17.72,North,0,0.0,0.0,71,0.00,,SKC,0.00,VWS V14.01,2015-01-28 09:41:00,
2015-01-28 04:46:00,13.3,5.6,17.72,North,0,0.0,0.0,71,0.00,,SKC,0.00,VWS V14.01,2015-01-28 09:46:00,
2015-01-28 04:51:00,13.3,5.6,17.72,North,0,0.0,0.0,71,0.00,,SKC,0.00,VWS V14.01,2015-01-28 09:51:00,
2015-01-28 04:56:00,13.5,5.7,17.72,North,0,0.0,0.0,71,0.00,,SKC,0.00,VWS V14.01,2015-01-28 09:56:00,
2015-01-28 05:01:00,13.3,5.6,17.72,North,0,0.0,0.0,71,0.00,,SKC,0.00,VWS V14.01,2015-01-28 10:01:00,
2015-01-28 05:06:00,13.1,5.4,17.72,North,0,0.0,0.0,71,0.00,,SKC,0.00,VWS V14.01,2015-01-28 10:06:00,
2015-01-28 05:11:00,13.1,5.4,17.72,North,0,0.0,0.0,71,0.00,,SKC,0.00,VWS V14.01,2015-01-28 10:11:00,
2015-01-28 05:16:00,13.3,5.6,17.72,North,0,0.0,0.0,71,0.00,,SKC,0.00,VWS V14.01,2015-01-28 10:16:00,
2015-01-28 05:21:00,13.3,5.6,17.72,North,0,0.0,0.0,71,0.00,,SKC,0.00,VWS V14.01,2015-01-28 10:21:00,
2015-01-28 05:26:00,13.3,5.6,17.72,North,0,0.0,0.0,71,0.00,,SKC,0.00,VWS V14.01,2015-01-28 10:26:00,
2015-01-28 05:31:00,13.5,5.7,17.72,North,0,0.0,0.0,71,0.00,,SKC,0.00,VWS V14.01,2015-01-28 10:31:00,
2015-01-28 05:36:00,13.3,5.6,17.72,North,0,0.0,0.0,71,0.00,,SKC,0.00,VWS V14.01,2015-01-28 10:36:00,
2015-01-28 05:41:00,13.3,5.6,17.72,North,0,0.0,0.0,71,0.00,,SKC,0.00,VWS V14.01,2015-01-28 10:41:00,
2015-01-28 05:46:00,13.5,5.7,17.72,North,0,0.0,0.0,71,0.00,,SKC,0.00,VWS V14.01,2015-01-28 10:46:00,
2015-01-28 05:51:00,13.3,5.6,17.72,North,0,0.0,0.0,71,0.00,,SKC,0.00,VWS V14.01,2015-01-28 10:51:00,
2015-01-28 05:56:00,13.1,5.4,17.72,North,0,0.0,0.0,71,0.00,,SKC,0.00,VWS V14.01,2015-01-28 10:56:00,
2015-01-28 06:01:00,12.9,5.2,17.72,North,0,0.0,0.0,71,0.00,,SKC,0.00,VWS V14.01,2015-01-28 11:01:00,
2015-01-28 06:06:00,12.9,5.2,17.72,North,0,0.0,0.0,71,0.00,,SKC,0.00,VWS V14.01,2015-01-28 11:06:00,
2015-01-28 06:11:00,12.9,5.2,17.72,North,0,0.0,0.0,71,0.00,,SKC,0.00,VWS V14.01,2015-01-28 11:11:00,
2015-01-28 06:16:00,12.9,5.2,17.72,North,0,0.0,0.0,71,0.00,,SKC,0.00,VWS V14.01,2015-01-28 11:16:00,
2015-01-28 06:21:00,12.9,5.2,17.72,North,0,0.0,0.0,71,0.00,,SKC,0.00,VWS V14.01,2015-01-28 11:21:00,
2015-01-28 06:26:00,12.9,5.2,17.72,North,0,0.0,0.0,71,0.00,,SKC,0.00,VWS V14.01,2015-01-28 11:26:00,
2015-01-28 06:31:00,12.7,5.0,17.72,North,0,0.0,0.0,71,0.00,,SKC,0.00,VWS V14.01,2015-01-28 11:31:00,
2015-01-28 06:36:00,12.7,5.0,17.72,North,0,0.0,0.0,71,0.00,,SKC,0.00,VWS V14.01,2015-01-28 11:36:00,
2015-01-28 06:41:00,12.7,5.0,17.72,North,0,0.0,0.0,71,0.00,,SKC,0.00,VWS V14.01,2015-01-28 11:41:00,
2015-01-28 06:46:00,12.7,5.0,17.72,North,0,0.0,0.0,71,0.00,,SKC,0.00,VWS V14.01,2015-01-28 11:46:00,
2015-01-28 06:51:00,12.9,5.2,17.72,North,0,0.0,0.0,71,0.00,,SKC,0.00,VWS V14.01,2015-01-28 11:51:00,
2015-01-28 06:56:00,12.9,5.2,17.72,North,0,0.0,0.0,71,0.00,,SKC,0.00,VWS V14.01,2015-01-28 11:56:00,
2015-01-28 07:01:00,12.9,5.2,17.72,North,0,0.0,0.0,71,0.00,,SKC,0.00,VWS V14.01,2015-01-28 12:01:00,
2015-01-28 07:06:00,12.9,5.2,17.72,North,0,0.0,0.0,71,0.00,,SKC,0.00,VWS V14.01,2015-01-28 12:06:00,
2015-01-28 07:11:00,12.9,5.2,17.72,North,0,0.0,0.0,71,0.00,,SKC,0.00,VWS V14.01,2015-01-28 12:11:00,
2015-01-28 07:19:00,13.1,5.4,17.72,North,0,0.0,0.0,71,42.27,,SKC,42.27,VWS V14.01,2015-01-28 12:19:00,
2015-01-28 07:24:00,12.9,5.2,17.72,North,0,0.0,0.0,71,42.27,,SKC,42.27,VWS V14.01,2015-01-28 12:24:00,
2015-01-28 07:29:00,12.9,5.2,17.72,North,0,0.0,0.0,71,42.27,,SKC,42.27,VWS V14.01,2015-01-28 12:29:00,
2015-01-28 07:34:00,12.9,5.2,17.72,North,0,0.0,0.0,71,42.27,,SKC,42.27,VWS V14.01,2015-01-28 12:34:00,
2015-01-28 07:39:00,12.7,5.0,17.72,North,0,0.0,0.0,71,42.27,,SKC,42.27,VWS V14.01,2015-01-28 12:39:00,
2015-01-28 07:44:00,12.6,4.9,17.72,North,0,0.0,0.0,71,42.27,,SKC,42.27,VWS V14.01,2015-01-28 12:44:00,
2015-01-28 07:49:00,12.6,4.9,17.72,North,0,0.0,0.0,71,42.27,,SKC,42.27,VWS V14.01,2015-01-28 12:49:00,
2015-01-28 07:54:00,12.6,4.9,17.72,North,0,0.0,0.0,71,42.27,,SKC,42.27,VWS V14.01,2015-01-28 12:54:00,
2015-01-28 07:59:00,12.7,5.0,17.72,North,0,0.0,0.0,71,42.27,,SKC,42.27,VWS V14.01,2015-01-28 12:59:00,
2015-01-28 08:04:00,12.7,5.0,17.72,North,0,0.0,0.0,71,42.27,,SKC,42.27,VWS V14.01,2015-01-28 13:04:00,
2015-01-28 08:09:00,12.9,5.2,17.72,North,0,0.0,0.0,71,42.27,,SKC,42.27,VWS V14.01,2015-01-28 13:09:00,
2015-01-28 08:14:00,13.3,5.6,17.72,North,0,0.0,0.0,71,42.27,,SKC,42.27,VWS V14.01,2015-01-28 13:14:00,
2015-01-28 08:19:00,13.8,6.1,17.72,North,0,0.0,0.0,71,0.00,,SKC,42.27,VWS V14.01,2015-01-28 13:19:00,
2015-01-28 08:24:00,14.4,10.3,17.72,North,0,0.0,0.0,84,0.00,,SKC,42.27,VWS V14.01,2015-01-28 13:24:00,
2015-01-28 08:29:00,15.1,11.1,17.72,North,0,0.0,0.0,84,0.00,,SKC,42.27,VWS V14.01,2015-01-28 13:29:00,
2015-01-28 08:34:00,15.6,12.1,17.72,North,0,0.0,0.0,86,0.00,,SKC,42.27,VWS V14.01,2015-01-28 13:34:00,
2015-01-28 08:39:00,16.2,12.1,17.72,North,0,0.0,0.0,84,0.00,,SKC,42.27,VWS V14.01,2015-01-28 13:39:00,
2015-01-28 08:44:00,16.9,12.8,17.72,North,0,0.0,0.0,84,0.00,,SKC,42.27,VWS V14.01,2015-01-28 13:44:00,
2015-01-28 08:49:00,18.0,13.9,17.72,North,0,0.0,0.0,84,0.00,,SKC,42.27,VWS V14.01,2015-01-28 13:49:00,
2015-01-28 08:54:00,18.7,14.6,17.72,North,0,0.0,0.0,84,0.00,,SKC,42.27,VWS V14.01,2015-01-28 13:54:00,
2015-01-28 08:59:00,19.4,15.3,17.72,North,0,0.0,0.0,84,0.00,,SKC,42.27,VWS V14.01,2015-01-28 13:59:00,
2015-01-28 09:04:00,20.3,16.2,17.72,North,0,0.0,0.0,84,0.00,,SKC,42.27,VWS V14.01,2015-01-28 14:04:00,
2015-01-28 09:09:00,20.8,16.7,17.72,North,0,0.0,0.0,84,0.00,,SKC,42.27,VWS V14.01,2015-01-28 14:09:00,
2015-01-28 09:14:00,21.4,17.2,17.72,North,0,0.0,0.0,84,0.00,,SKC,42.27,VWS V14.01,2015-01-28 14:14:00,
2015-01-28 09:19:00,22.1,17.9,17.72,North,0,0.0,0.0,84,0.00,,SKC,42.27,VWS V14.01,2015-01-28 14:19:00,
2015-01-28 09:24:00,22.8,19.1,17.72,North,0,0.0,0.0,86,0.00,,SKC,42.27,VWS V14.01,2015-01-28 14:24:00,
2015-01-28 09:29:00,23.5,19.3,17.72,North,0,0.0,0.0,84,0.00,,SKC,42.27,VWS V14.01,2015-01-28 14:29:00,
2015-01-28 09:33:00,24.3,20.6,17.72,North,0,0.0,0.0,86,0.00,,SKC,42.27,VWS V14.01,2015-01-28 14:33:00,
2015-01-28 09:38:00,24.6,20.4,17.72,North,0,0.0,0.0,84,0.00,,SKC,42.27,VWS V14.01,2015-01-28 14:38:00,
2015-01-28 09:43:00,24.8,20.6,17.72,North,0,0.0,0.0,84,0.00,,SKC,42.27,VWS V14.01,2015-01-28 14:43:00,
2015-01-28 09:48:00,25.0,20.8,17.72,North,0,0.0,0.0,84,0.00,,SKC,42.27,VWS V14.01,2015-01-28 14:48:00,
2015-01-28 09:53:00,25.2,20.4,17.72,North,0,0.0,0.0,82,0.00,,SKC,42.27,VWS V14.01,2015-01-28 14:53:00,
2015-01-28 09:58:00,25.3,20.6,17.72,North,0,0.0,0.0,82,0.00,,SKC,42.27,VWS V14.01,2015-01-28 14:58:00,
2015-01-28 10:03:00,25.3,20.6,17.72,North,0,0.0,0.0,82,0.00,,SKC,42.27,VWS V14.01,2015-01-28 15:03:00,
2015-01-28 10:08:00,25.5,20.8,17.72,North,0,0.0,0.0,82,0.00,,SKC,42.27,VWS V14.01,2015-01-28 15:08:00,
2015-01-28 10:13:00,26.1,21.3,17.72,North,0,0.0,0.0,82,0.00,,SKC,42.27,VWS V14.01,2015-01-28 15:13:00,
2015-01-28 10:18:00,26.2,20.9,17.72,North,0,0.0,0.0,80,0.00,,SKC,42.27,VWS V14.01,2015-01-28 15:18:00,
2015-01-28 10:23:00,26.4,21.1,17.72,North,0,0.0,0.0,80,0.00,,SKC,42.27,VWS V14.01,2015-01-28 15:23:00,
2015-01-28 10:28:00,26.8,20.9,17.72,North,0,0.0,0.0,78,0.00,,SKC,42.27,VWS V14.01,2015-01-28 15:28:00,
2015-01-28 10:33:00,27.3,21.4,17.72,North,0,0.0,0.0,78,0.00,,SKC,42.27,VWS V14.01,2015-01-28 15:33:00,